Time;durP1;ratioP1;P1;durP2;ratioP2;P2;SDS_P1;SDS_P2;PMS_P1;PMS_P2;Temp;Humidity;BMP_temperature;BMP_pressure;BME280_temperature;BME280_humidity;BME280_pressure;Samples;Min_cycle;Max_cycle;Signal;HPM_P1;HPM_P2
2023/04/23 06:22:21;;;;;;;5.83;4.70;;;10.50;99.90;;;;;;5131689;27;20275;-76
2023/04/23 06:28:07;;;;;;;6.10;4.07;;;10.60;99.90;;;;;;5132613;27;20267;-76
2023/04/23 06:32:46;;;;;;;5.40;4.53;;;10.60;99.90;;;;;;5132796;27;20282;-77
2023/04/23 06:36:34;;;;;;;5.00;4.27;;;11.10;99.90;;;;;;5111374;27;20638;-77
2023/04/23 06:57:55;;;;;;;4.93;3.20;;;10.80;99.90;;;;;;5132605;27;20267;-75
2023/04/23 07:04:07;;;;;;;3.73;3.30;;;10.80;99.90;;;;;;5091860;28;20276;-76
2023/04/23 07:10:40;;;;;;;5.63;3.40;;;10.80;99.90;;;;;;5132304;27;20276;-75
2023/04/23 07:15:36;;;;;;;5.90;4.13;;;11.20;99.90;;;;;;5132101;27;20290;-75
2023/04/23 07:19:31;;;;;;;4.87;3.67;;;10.80;99.90;;;;;;5153182;27;20266;-75
2023/04/23 07:23:23;;;;;;;3.77;3.10;;;10.90;99.90;;;;;;5132779;27;20267;-77
2023/04/23 07:25:48;;;;;;;3.40;3.00;;;11.20;99.90;;;;;;5131994;28;20191;-76
2023/04/23 07:30:21;;;;;;;3.23;2.47;;;11.50;99.90;;;;;;5132383;27;20267;-75
2023/04/23 07:32:47;;;;;;;2.63;2.43;;;11.50;99.90;;;;;;5131889;28;20198;-76
2023/04/23 07:35:13;;;;;;;3.30;3.00;;;11.80;99.90;;;;;;5131758;28;20259;-75
2023/04/23 07:37:39;;;;;;;2.93;2.60;;;11.90;99.90;;;;;;5131868;27;20169;-75
2023/04/23 07:40:06;;;;;;;2.77;2.57;;;12.10;99.90;;;;;;5131819;27;20172;-75
2023/04/23 07:42:32;;;;;;;2.77;2.30;;;12.10;99.90;;;;;;5131629;27;20171;-76
2023/04/23 07:44:58;;;;;;;4.50;2.63;;;12.00;99.90;;;;;;5130064;28;20687;-76
2023/04/23 07:47:24;;;;;;;3.13;2.30;;;11.90;99.90;;;;;;5131919;27;20174;-76
2023/04/23 07:49:49;;;;;;;3.77;2.70;;;11.90;99.90;;;;;;5131450;27;20188;-76
2023/04/23 07:52:15;;;;;;;4.40;2.43;;;12.00;99.90;;;;;;5131746;27;20167;-76
2023/04/23 07:54:41;;;;;;;3.13;2.73;;;12.00;99.90;;;;;;5130184;28;20199;-76
2023/04/23 07:57:07;;;;;;;4.50;2.50;;;12.40;99.90;;;;;;5130270;28;20258;-76
2023/04/23 07:59:33;;;;;;;3.93;2.80;;;13.40;99.90;;;;;;5131508;27;20159;-75
2023/04/23 08:01:58;;;;;;;3.77;2.70;;;14.70;99.90;;;;;;5131702;27;20199;-76
2023/04/23 08:04:24;;;;;;;2.50;2.27;;;15.10;99.90;;;;;;5131524;27;20598;-76
2023/04/23 08:06:51;;;;;;;3.83;2.20;;;16.20;99.90;;;;;;5131388;27;20691;-76
2023/04/23 08:09:17;;;;;;;3.00;2.30;;;17.00;99.90;;;;;;5129740;28;20666;-77
2023/04/23 08:11:43;;;;;;;2.80;2.60;;;17.00;99.90;;;;;;5130946;27;20173;-76
2023/04/23 08:14:09;;;;;;;3.37;2.60;;;17.40;99.90;;;;;;5129910;28;20172;-77
2023/04/23 08:16:34;;;;;;;2.60;2.30;;;17.20;99.90;;;;;;5131025;27;20595;-77
2023/04/23 08:19:00;;;;;;;4.57;2.37;;;16.60;99.90;;;;;;5131222;27;20250;-77
2023/04/23 08:21:27;;;;;;;2.47;2.27;;;16.40;99.90;;;;;;5131032;27;20174;-77
2023/04/23 08:23:53;;;;;;;3.20;2.67;;;16.90;99.90;;;;;;5130983;27;20250;-77
2023/04/23 08:26:19;;;;;;;4.00;2.90;;;16.90;99.90;;;;;;5130990;27;20274;-77
2023/04/23 08:28:45;;;;;;;3.07;2.50;;;16.90;99.90;;;;;;5131465;27;20203;-77
2023/04/23 08:31:13;;;;;;;3.10;2.10;;;17.00;99.90;;;;;;5129432;28;20636;-77
2023/04/23 08:33:39;;;;;;;2.57;2.20;;;17.70;99.90;;;;;;5130947;27;20174;-77
2023/04/23 08:36:05;;;;;;;2.47;2.27;;;18.60;99.90;;;;;;5130680;27;20534;-76
2023/04/23 08:38:31;;;;;;;3.33;2.47;;;18.80;99.90;;;;;;5131234;27;20545;-77
2023/04/23 08:40:58;;;;;;;2.70;2.17;;;18.90;99.90;;;;;;5120967;27;20641;-77
2023/04/23 08:43:47;;;;;;;2.40;2.20;;;18.10;99.90;;;;;;5116319;28;20184;-77
2023/04/23 08:46:14;;;;;;;2.30;2.10;;;17.40;99.90;;;;;;5117478;28;20195;-78
2023/04/23 08:48:42;;;;;;;3.50;1.97;;;16.50;99.90;;;;;;5117005;28;20187;-79
2023/04/23 08:51:10;;;;;;;2.10;1.90;;;15.90;99.90;;;;;;5117532;28;20179;-77
2023/04/23 08:53:37;;;;;;;2.80;2.30;;;15.60;99.90;;;;;;5116998;28;20167;-77
2023/04/23 08:56:05;;;;;;;2.20;2.00;;;15.60;99.90;;;;;;5116629;28;20192;-78
2023/04/23 08:58:32;;;;;;;2.23;2.03;;;15.80;99.90;;;;;;5116843;28;20172;-77
2023/04/23 09:00:58;;;;;;;4.00;1.80;;;16.90;99.90;;;;;;5115894;28;20633;-75
2023/04/23 09:03:24;;;;;;;3.47;2.97;;;18.10;99.90;;;;;;5129727;27;20632;-76
2023/04/23 09:05:54;;;;;;;3.67;2.10;;;18.70;99.90;;;;;;5136458;27;20201;-77
2023/04/23 09:08:20;;;;;;;3.13;1.87;;;19.40;99.90;;;;;;5136879;27;20656;-75
2023/04/23 09:10:46;;;;;;;2.47;1.90;;;18.40;99.90;;;;;;5124994;27;20178;-77
2023/04/23 09:13:13;;;;;;;3.40;2.00;;;17.20;99.90;;;;;;5116366;28;20195;-76
2023/04/23 09:15:44;;;;;;;3.13;2.10;;;16.30;99.90;;;;;;5116482;28;20673;-76
2023/04/23 09:18:10;;;;;;;4.40;1.87;;;16.40;99.90;;;;;;5118764;27;20150;-78
2023/04/23 09:20:36;;;;;;;3.57;2.23;;;16.70;99.90;;;;;;5136840;27;20174;-77
2023/04/23 09:23:06;;;;;;;3.33;2.20;;;16.60;99.90;;;;;;5137256;27;20184;-78
2023/04/23 09:25:32;;;;;;;2.93;1.90;;;16.20;99.90;;;;;;5118244;27;20243;-77
2023/04/23 09:28:00;;;;;;;2.37;1.97;;;16.00;99.90;;;;;;5116115;28;20175;-78
2023/04/23 09:30:26;;;;;;;2.00;1.90;;;15.80;99.90;;;;;;5116108;28;20597;-77
2023/04/23 09:32:52;;;;;;;3.43;2.20;;;16.00;99.90;;;;;;5116176;28;20176;-77
2023/04/23 09:35:18;;;;;;;1.70;1.50;;;17.10;99.90;;;;;;5115994;28;20180;-78
2023/04/23 09:37:47;;;;;;;5.17;1.90;;;18.00;99.90;;;;;;5116402;28;20208;-77
2023/04/23 09:40:22;;;;;;;4.90;1.63;;;19.10;99.90;;;;;;5116056;28;20210;-77
2023/04/23 09:42:51;;;;;;;2.40;2.20;;;19.20;99.90;;;;;;5115119;28;20170;-78
2023/04/23 09:45:17;;;;;;;3.10;1.83;;;18.50;99.90;;;;;;5113887;28;20200;-77
2023/04/23 09:47:54;;;;;;;2.30;1.60;;;17.80;99.90;;;;;;5115606;28;20529;-77
2023/04/23 09:50:37;;;;;;;2.13;1.50;;;17.20;99.90;;;;;;5115337;28;20171;-77
2023/04/23 09:53:03;;;;;;;1.60;1.50;;;16.80;99.90;;;;;;5114692;28;20205;-77
2023/04/23 09:55:33;;;;;;;2.00;1.80;;;16.70;99.90;;;;;;5115539;28;20231;-77
2023/04/23 09:58:00;;;;;;;1.93;1.73;;;16.50;99.90;;;;;;5115596;28;20515;-77
2023/04/23 10:00:32;;;;;;;1.90;1.80;;;16.40;99.90;;;;;;5115187;28;20216;-77
2023/04/23 10:02:59;;;;;;;2.10;1.50;;;16.70;99.90;;;;;;5115620;28;20550;-78
2023/04/23 10:05:25;;;;;;;1.63;1.30;;;17.10;99.90;;;;;;5115289;28;20207;-77
2023/04/23 10:07:50;;;;;;;2.13;1.70;;;17.20;99.90;;;;;;5115582;28;20633;-79
2023/04/23 10:10:20;;;;;;;1.93;1.40;;;17.40;99.90;;;;;;5116331;28;20337;-77
2023/04/23 10:12:46;;;;;;;2.07;1.27;;;17.20;99.90;;;;;;5117923;28;20167;-78
2023/04/23 10:15:13;;;;;;;1.40;1.30;;;17.10;99.90;;;;;;5117647;28;20248;-79
2023/04/23 10:17:40;;;;;;;3.27;1.60;;;16.90;99.90;;;;;;5118015;28;20178;-79
2023/04/23 10:20:07;;;;;;;1.40;1.20;;;16.80;99.90;;;;;;5118787;28;20628;-78
2023/04/23 10:22:36;;;;;;;1.47;1.37;;;16.90;99.90;;;;;;5116825;28;20176;-79
2023/04/23 10:25:08;;;;;;;1.47;1.37;;;17.10;99.90;;;;;;5120538;28;20198;-78
2023/04/23 10:27:40;;;;;;;1.57;1.43;;;17.20;99.90;;;;;;5119484;28;20183;-79
2023/04/23 10:30:07;;;;;;;1.33;1.23;;;17.30;99.90;;;;;;5120015;28;20200;-79
2023/04/23 10:32:33;;;;;;;2.57;1.40;;;17.50;99.90;;;;;;5119988;28;20171;-79
2023/04/23 10:34:59;;;;;;;1.67;1.40;;;17.70;99.90;;;;;;5118056;28;20194;-78
2023/04/23 10:37:26;;;;;;;1.80;1.13;;;17.80;99.90;;;;;;5118144;28;20175;-79
2023/04/23 10:40:03;;;;;;;3.27;1.50;;;17.70;99.90;;;;;;5117322;28;20529;-78
2023/04/23 10:42:29;;;;;;;1.27;1.10;;;17.60;99.90;;;;;;5114661;28;20201;-77
2023/04/23 10:44:57;;;;;;;2.43;1.30;;;17.50;99.90;;;;;;5113186;28;20202;-77
2023/04/23 10:47:23;;;;;;;5.23;1.47;;;17.70;99.90;;;;;;5113327;28;20664;-78
2023/04/23 10:49:49;;;;;;;1.77;1.63;;;17.90;99.90;;;;;;5112737;28;20238;-77
2023/04/23 10:52:18;;;;;;;1.93;1.50;;;18.00;99.90;;;;;;5114577;28;20176;-77
2023/04/23 10:54:48;;;;;;;2.37;2.00;;;18.00;99.90;;;;;;5115596;28;20663;-78
2023/04/23 10:57:14;;;;;;;2.97;2.17;;;17.80;99.90;;;;;;5115418;28;20174;-78
2023/04/23 10:59:50;;;;;;;3.90;2.73;;;17.60;99.90;;;;;;5116860;28;20183;-78
2023/04/23 11:02:16;;;;;;;2.73;1.93;;;17.40;99.90;;;;;;5113138;28;20204;-77
2023/04/23 11:04:53;;;;;;;3.53;1.80;;;17.20;99.90;;;;;;5114336;28;20199;-77
2023/04/23 11:07:19;;;;;;;2.37;1.80;;;17.20;99.90;;;;;;5113012;28;20189;-76
2023/04/23 11:09:46;;;;;;;5.03;2.30;;;17.20;99.90;;;;;;5114029;28;20695;-77
2023/04/23 11:12:19;;;;;;;3.57;1.80;;;17.10;99.90;;;;;;5114570;28;20181;-77
2023/04/23 11:14:48;;;;;;;2.20;1.67;;;17.00;99.90;;;;;;5114339;28;20191;-77
2023/04/23 11:17:22;;;;;;;3.27;1.87;;;16.90;99.90;;;;;;5113042;28;20272;-77
2023/04/23 11:20:06;;;;;;;2.57;1.93;;;17.00;99.90;;;;;;5113871;28;20655;-77
2023/04/23 11:22:46;;;;;;;2.03;1.50;;;16.90;99.90;;;;;;5112731;28;20179;-76
2023/04/23 11:25:13;;;;;;;1.23;1.13;;;17.20;99.90;;;;;;5113649;28;20212;-77
2023/04/23 11:27:41;;;;;;;2.03;1.20;;;17.20;99.90;;;;;;5114068;28;20186;-77
2023/04/23 11:30:15;;;;;;;1.77;1.43;;;17.80;99.90;;;;;;5113961;28;20663;-79
2023/04/23 11:32:43;;;;;;;2.73;1.33;;;18.30;99.90;;;;;;5112943;28;20183;-76
2023/04/23 11:35:10;;;;;;;2.30;1.50;;;19.10;99.90;;;;;;5113864;28;20190;-77
2023/04/23 11:37:40;;;;;;;1.77;1.57;;;19.60;99.90;;;;;;5113828;28;20225;-77
2023/04/23 11:40:10;;;;;;;2.17;1.60;;;20.00;99.90;;;;;;5112259;28;20633;-76
2023/04/23 11:42:48;;;;;;;2.77;1.70;;;20.30;99.90;;;;;;5113602;28;20262;-77
2023/04/23 11:45:25;;;;;;;1.90;1.57;;;20.10;99.90;;;;;;5113976;28;20191;-76
2023/04/23 11:47:59;;;;;;;2.07;1.60;;;20.00;99.90;;;;;;5112600;28;20253;-77
2023/04/23 11:50:27;;;;;;;1.87;1.40;;;20.10;99.90;;;;;;5113467;28;20168;-76
2023/04/23 11:52:53;;;;;;;1.80;1.60;;;20.00;99.90;;;;;;5114235;28;20725;-77
2023/04/23 11:55:19;;;;;;;3.90;1.77;;;19.60;99.90;;;;;;5113559;28;20241;-77
2023/04/23 11:57:47;;;;;;;1.87;1.70;;;19.40;99.90;;;;;;5113823;28;20163;-76
2023/04/23 12:00:15;;;;;;;2.27;1.70;;;19.40;99.90;;;;;;5113140;28;20175;-77
2023/04/23 12:03:03;;;;;;;2.53;1.67;;;19.70;99.90;;;;;;5112575;28;20178;-76
2023/04/23 12:05:35;;;;;;;1.93;1.47;;;19.70;99.90;;;;;;5113179;28;20239;-77
2023/04/23 12:08:15;;;;;;;4.43;1.77;;;19.40;99.90;;;;;;5113849;28;20582;-77
2023/04/23 12:10:45;;;;;;;2.17;1.73;;;19.60;99.90;;;;;;5113533;28;20168;-77
2023/04/23 12:13:25;;;;;;;2.47;1.67;;;19.60;99.90;;;;;;5113511;28;20179;-77
2023/04/23 12:15:56;;;;;;;2.43;1.80;;;19.40;99.90;;;;;;5113928;28;20202;-77
2023/04/23 12:18:39;;;;;;;2.17;1.50;;;19.20;99.90;;;;;;5117465;28;20164;-77
2023/04/23 12:21:06;;;;;;;4.80;1.93;;;19.00;99.90;;;;;;5117102;28;20167;-77
2023/04/23 12:23:35;;;;;;;3.77;1.80;;;18.70;99.90;;;;;;5116747;28;20202;-77
2023/04/23 12:26:05;;;;;;;2.73;1.80;;;18.50;99.90;;;;;;5117006;28;20320;-77
2023/04/23 12:28:31;;;;;;;2.07;1.90;;;18.60;99.90;;;;;;5115756;28;20617;-76
2023/04/23 12:31:01;;;;;;;3.83;1.80;;;18.60;99.90;;;;;;5115906;28;20629;-76
2023/04/23 12:33:30;;;;;;;1.73;1.63;;;18.30;99.90;;;;;;5116622;28;20629;-77
2023/04/23 12:35:56;;;;;;;3.93;2.00;;;18.20;99.90;;;;;;5117007;28;20215;-77
2023/04/23 12:38:29;;;;;;;3.00;2.07;;;18.60;99.90;;;;;;5117029;28;20562;-77
2023/04/23 12:40:59;;;;;;;3.90;1.50;;;19.10;99.90;;;;;;5115651;28;20176;-77
2023/04/23 12:43:25;;;;;;;2.87;2.20;;;19.90;99.90;;;;;;5116840;28;20168;-77
2023/04/23 12:45:53;;;;;;;3.83;1.70;;;21.10;99.90;;;;;;5116717;28;20196;-77
2023/04/23 12:48:19;;;;;;;2.43;1.77;;;22.30;99.90;;;;;;5116736;28;20170;-77
2023/04/23 12:50:46;;;;;;;1.90;1.70;;;23.10;99.20;;;;;;5116184;28;20168;-77
2023/04/23 12:53:11;;;;;;;1.67;1.57;;;23.40;99.90;;;;;;5116852;28;20236;-77
2023/04/23 12:55:42;;;;;;;2.30;1.80;;;24.10;98.20;;;;;;5116528;28;20654;-77
2023/04/23 12:58:07;;;;;;;2.50;1.63;;;22.90;99.60;;;;;;5116110;28;20574;-77
2023/04/23 13:00:33;;;;;;;5.00;2.87;;;21.90;98.00;;;;;;5116352;28;20720;-77
2023/04/23 13:03:00;;;;;;;3.80;2.23;;;21.50;99.80;;;;;;5116673;28;20167;-77
2023/04/23 13:05:25;;;;;;;2.30;1.80;;;21.30;99.10;;;;;;5116580;28;20186;-77
2023/04/23 13:07:52;;;;;;;3.30;2.07;;;21.10;98.50;;;;;;5116471;28;20658;-77
2023/04/23 13:10:18;;;;;;;4.07;2.20;;;20.70;99.90;;;;;;5116182;28;20218;-77
2023/04/23 13:12:44;;;;;;;2.87;1.93;;;20.90;99.90;;;;;;5116192;28;20671;-77
2023/04/23 13:15:11;;;;;;;3.23;1.90;;;21.50;98.20;;;;;;5116185;28;20662;-77
2023/04/23 13:17:37;;;;;;;4.37;1.97;;;21.70;97.10;;;;;;5116372;28;20176;-77
2023/04/23 13:20:04;;;;;;;3.00;1.80;;;22.70;97.60;;;;;;5116252;28;20570;-77
2023/04/23 13:22:30;;;;;;;2.67;1.60;;;23.50;95.60;;;;;;5115307;28;20186;-78
2023/04/23 13:24:57;;;;;;;2.53;1.80;;;24.20;94.00;;;;;;5116723;28;20193;-77
2023/04/23 13:27:27;;;;;;;2.50;1.60;;;23.80;93.40;;;;;;5116246;28;20261;-77
2023/04/23 13:29:54;;;;;;;2.60;1.80;;;23.40;94.80;;;;;;5115674;28;20254;-77
2023/04/23 13:32:19;;;;;;;3.03;1.70;;;23.40;94.70;;;;;;5115883;28;20164;-77
2023/04/23 13:34:45;;;;;;;2.50;1.70;;;23.60;93.70;;;;;;5116345;28;20187;-77
2023/04/23 13:37:11;;;;;;;1.37;1.27;;;23.80;93.30;;;;;;5116227;28;20182;-77
2023/04/23 13:39:37;;;;;;;1.57;1.47;;;23.20;92.80;;;;;;5116260;28;20616;-77
2023/04/23 13:42:03;;;;;;;1.77;1.67;;;22.00;93.90;;;;;;5116130;28;20175;-77
2023/04/23 13:44:32;;;;;;;2.97;1.57;;;21.10;96.20;;;;;;5115853;28;20174;-77
2023/04/23 13:46:58;;;;;;;1.63;1.50;;;20.30;97.80;;;;;;5115595;28;20511;-77
2023/04/23 13:49:27;;;;;;;2.60;1.70;;;19.60;97.60;;;;;;5115422;28;20197;-77
2023/04/23 13:51:59;;;;;;;6.73;3.00;;;19.20;99.10;;;;;;5114401;28;20263;-76
2023/04/23 13:54:28;;;;;;;10.37;5.80;;;18.80;99.90;;;;;;5115299;28;20168;-75
2023/04/23 13:56:57;;;;;;;3.97;3.13;;;18.60;99.90;;;;;;5115872;28;20176;-75
2023/04/23 13:59:24;;;;;;;3.37;2.33;;;18.30;99.90;;;;;;5115631;28;20516;-75
2023/04/23 14:01:50;;;;;;;8.03;5.33;;;18.10;99.90;;;;;;5115064;28;20179;-75
2023/04/23 14:04:16;;;;;;;3.43;2.83;;;18.00;99.90;;;;;;5115227;28;20167;-75
2023/04/23 14:06:42;;;;;;;4.03;2.57;;;18.00;99.90;;;;;;5115210;28;20200;-74
2023/04/23 14:09:08;;;;;;;2.50;2.30;;;18.00;99.90;;;;;;5115058;28;20203;-75
2023/04/23 14:11:33;;;;;;;2.43;1.93;;;18.50;99.90;;;;;;5115108;28;20644;-75
2023/04/23 14:14:00;;;;;;;2.10;1.80;;;18.70;99.90;;;;;;5114899;28;20177;-75
2023/04/23 14:16:25;;;;;;;2.20;1.60;;;18.60;99.90;;;;;;5115316;28;20188;-75
2023/04/23 14:18:51;;;;;;;2.53;2.23;;;18.30;99.90;;;;;;5115132;28;20313;-75
2023/04/23 14:21:17;;;;;;;4.03;1.80;;;18.00;99.90;;;;;;5114712;28;20203;-75
2023/04/23 14:23:46;;;;;;;1.90;1.70;;;18.00;99.90;;;;;;5113489;28;20179;-75
2023/04/23 14:26:41;;;;;;;2.83;1.50;;;17.90;99.90;;;;;;5114891;28;20202;-75
2023/04/23 14:29:16;;;;;;;2.50;1.90;;;17.90;99.90;;;;;;5114706;28;20211;-75
2023/04/23 14:31:42;;;;;;;2.00;1.80;;;18.10;99.90;;;;;;5114545;28;20170;-75
2023/04/23 14:34:08;;;;;;;4.60;1.80;;;18.30;99.90;;;;;;5115222;28;20171;-75
2023/04/23 14:36:33;;;;;;;4.37;2.00;;;18.40;99.90;;;;;;5114536;28;20562;-76
2023/04/23 14:39:03;;;;;;;4.23;1.90;;;18.70;99.90;;;;;;5112739;28;20541;-75
2023/04/23 14:41:30;;;;;;;3.53;1.80;;;18.60;99.90;;;;;;5114878;28;20258;-75
2023/04/23 14:43:56;;;;;;;4.60;1.43;;;18.60;99.90;;;;;;5114427;28;20638;-76
2023/04/23 14:46:21;;;;;;;1.97;1.70;;;18.80;99.90;;;;;;5115069;28;20202;-75
2023/04/23 14:48:47;;;;;;;1.80;1.60;;;19.40;99.90;;;;;;5114145;28;20260;-76
2023/04/23 14:51:13;;;;;;;1.60;1.50;;;21.00;99.90;;;;;;5114096;28;20168;-76
2023/04/23 14:53:38;;;;;;;2.80;1.87;;;21.50;99.60;;;;;;5114227;28;20167;-76
2023/04/23 14:56:04;;;;;;;1.80;1.70;;;21.50;99.10;;;;;;5114672;28;20187;-76
2023/04/23 14:58:30;;;;;;;3.00;2.00;;;21.00;99.40;;;;;;5114812;28;20529;-77
2023/04/23 15:00:56;;;;;;;1.70;1.60;;;20.30;99.90;;;;;;5114258;28;20533;-76
2023/04/23 15:03:21;;;;;;;2.97;1.80;;;19.40;99.90;;;;;;5112762;28;20184;-76
2023/04/23 15:05:47;;;;;;;1.90;1.70;;;18.60;99.90;;;;;;5114061;28;20191;-76
2023/04/23 15:08:13;;;;;;;2.53;1.47;;;18.00;99.90;;;;;;5113943;28;20183;-76
2023/04/23 15:10:38;;;;;;;2.00;1.80;;;17.80;99.90;;;;;;5114091;28;20172;-77
2023/04/23 15:13:28;;;;;;;2.33;2.13;;;17.70;99.90;;;;;;5114570;28;20167;-78
2023/04/23 15:16:02;;;;;;;3.10;1.67;;;17.70;99.90;;;;;;5112311;28;20188;-76
2023/04/23 15:18:28;;;;;;;3.03;2.67;;;18.10;99.90;;;;;;5114112;28;20175;-77
2023/04/23 15:20:54;;;;;;;2.60;2.00;;;18.90;99.90;;;;;;5114349;28;20633;-77
2023/04/23 15:23:20;;;;;;;2.30;2.10;;;19.20;99.90;;;;;;5112626;28;20180;-77
2023/04/23 15:25:48;;;;;;;3.17;1.90;;;19.50;99.90;;;;;;5112530;28;20195;-77
2023/04/23 15:28:13;;;;;;;3.03;1.50;;;20.00;99.90;;;;;;5113843;28;20237;-77
2023/04/23 15:30:42;;;;;;;2.30;1.90;;;20.40;99.90;;;;;;5112280;28;20168;-77
2023/04/23 15:33:07;;;;;;;4.37;2.07;;;20.40;99.90;;;;;;5112330;28;20172;-77
2023/04/23 15:35:33;;;;;;;3.37;2.00;;;20.40;99.90;;;;;;5113779;28;20279;-77
2023/04/23 15:37:59;;;;;;;3.60;2.93;;;20.30;99.90;;;;;;5113955;28;20179;-77
2023/04/23 15:40:28;;;;;;;1.97;1.80;;;20.20;99.90;;;;;;5112309;28;20659;-77
2023/04/23 15:42:54;;;;;;;2.97;1.80;;;19.90;99.90;;;;;;5113779;28;20175;-77
2023/04/23 15:45:19;;;;;;;3.27;2.10;;;19.80;99.90;;;;;;5112241;28;20191;-77
2023/04/23 15:47:45;;;;;;;6.97;1.83;;;20.00;99.90;;;;;;5113687;28;20259;-76
2023/04/23 15:50:11;;;;;;;2.03;1.73;;;20.60;99.50;;;;;;5113989;28;20325;-77
2023/04/23 15:52:38;;;;;;;11.73;1.80;;;21.00;98.20;;;;;;5116359;28;20210;-77
2023/04/23 15:55:05;;;;;;;2.23;1.90;;;20.60;98.80;;;;;;5117666;28;20179;-76
2023/04/23 15:57:31;;;;;;;5.53;2.13;;;20.00;99.90;;;;;;5117696;28;20185;-76
2023/04/23 15:59:56;;;;;;;3.50;2.00;;;19.30;99.90;;;;;;5117872;28;20613;-76
2023/04/23 16:02:22;;;;;;;2.00;1.90;;;18.80;99.90;;;;;;5117562;28;20183;-77
2023/04/23 16:04:49;;;;;;;4.23;1.97;;;18.10;99.90;;;;;;5117628;28;20187;-77
2023/04/23 16:07:15;;;;;;;4.90;1.93;;;17.80;99.90;;;;;;5117614;28;20168;-76
2023/04/23 16:09:41;;;;;;;4.20;2.13;;;17.50;99.90;;;;;;5117168;28;20210;-76
2023/04/23 16:12:07;;;;;;;3.20;1.90;;;17.40;99.90;;;;;;5116181;28;20262;-76
2023/04/23 16:14:32;;;;;;;2.20;1.60;;;17.40;99.90;;;;;;5117300;28;20174;-76
2023/04/23 16:16:58;;;;;;;2.17;1.77;;;17.40;99.90;;;;;;5117359;28;20200;-77
2023/04/23 16:19:24;;;;;;;2.30;1.60;;;17.20;99.90;;;;;;5117558;28;20175;-76
2023/04/23 16:21:49;;;;;;;2.10;1.60;;;17.00;99.90;;;;;;5117085;28;20182;-76
2023/04/23 16:24:16;;;;;;;1.87;1.70;;;16.80;99.90;;;;;;5115992;28;20263;-76
2023/04/23 16:26:42;;;;;;;2.87;1.70;;;16.70;99.90;;;;;;5115829;28;20288;-75
2023/04/23 16:29:07;;;;;;;2.20;2.00;;;16.50;99.90;;;;;;5116890;28;20345;-75
2023/04/23 16:31:33;;;;;;;2.07;1.77;;;16.40;99.90;;;;;;5115656;28;20626;-75
2023/04/23 16:33:59;;;;;;;2.43;1.73;;;16.30;99.90;;;;;;5117030;28;20220;-78
2023/04/23 16:36:25;;;;;;;7.20;2.07;;;16.20;99.90;;;;;;5115379;28;20564;-76
2023/04/23 16:38:51;;;;;;;4.67;2.37;;;16.10;99.90;;;;;;5117074;28;20170;-78
